sensor_id;sensor_type;location;lat;lon;timestamp;P1;durP1;ratioP1;P2;durP2;ratioP2
56051;SDS011;41919;42.648;23.384;2023-02-15T00:01:28;36.58;;;15.57;;
56051;SDS011;41919;42.648;23.384;2023-02-15T00:03:54;35.35;;;16.15;;
56051;SDS011;41919;42.648;23.384;2023-02-15T00:06:19;36.53;;;15.73;;
56051;SDS011;41919;42.648;23.384;2023-02-15T00:08:45;37.95;;;16.90;;
56051;SDS011;41919;42.648;23.384;2023-02-15T00:11:11;36.47;;;16.20;;
56051;SDS011;41919;42.648;23.384;2023-02-15T00:13:38;38.08;;;17.02;;
56051;SDS011;41919;42.648;23.384;2023-02-15T00:16:08;35.80;;;15.65;;
56051;SDS011;41919;42.648;23.384;2023-02-15T00:18:35;34.72;;;16.42;;
56051;SDS011;41919;42.648;23.384;2023-02-15T00:21:04;36.72;;;16.30;;
56051;SDS011;41919;42.648;23.384;2023-02-15T00:23:31;34.05;;;15.57;;
56051;SDS011;41919;42.648;23.384;2023-02-15T00:26:04;34.75;;;16.88;;
56051;SDS011;41919;42.648;23.384;2023-02-15T00:28:31;35.97;;;16.92;;
56051;SDS011;41919;42.648;23.384;2023-02-15T00:31:06;38.05;;;15.90;;
56051;SDS011;41919;42.648;23.384;2023-02-15T00:33:33;35.72;;;15.23;;
56051;SDS011;41919;42.648;23.384;2023-02-15T00:35:59;30.60;;;14.65;;
56051;SDS011;41919;42.648;23.384;2023-02-15T00:38:26;35.35;;;14.95;;
56051;SDS011;41919;42.648;23.384;2023-02-15T00:40:56;36.60;;;16.23;;
56051;SDS011;41919;42.648;23.384;2023-02-15T00:43:23;33.42;;;15.35;;
56051;SDS011;41919;42.648;23.384;2023-02-15T00:45:49;39.33;;;17.13;;
56051;SDS011;41919;42.648;23.384;2023-02-15T00:48:15;31.65;;;15.50;;
56051;SDS011;41919;42.648;23.384;2023-02-15T00:50:40;34.75;;;16.42;;
56051;SDS011;41919;42.648;23.384;2023-02-15T00:53:06;35.67;;;15.95;;
56051;SDS011;41919;42.648;23.384;2023-02-15T00:55:32;38.30;;;15.30;;
56051;SDS011;41919;42.648;23.384;2023-02-15T00:57:58;35.17;;;16.25;;
56051;SDS011;41919;42.648;23.384;2023-02-15T01:00:23;38.63;;;15.80;;
56051;SDS011;41919;42.648;23.384;2023-02-15T01:02:49;37.42;;;16.38;;
56051;SDS011;41919;42.648;23.384;2023-02-15T01:05:14;35.47;;;16.10;;
56051;SDS011;41919;42.648;23.384;2023-02-15T01:07:40;34.47;;;15.18;;
56051;SDS011;41919;42.648;23.384;2023-02-15T01:10:06;34.90;;;15.63;;
56051;SDS011;41919;42.648;23.384;2023-02-15T01:12:32;32.75;;;14.90;;
56051;SDS011;41919;42.648;23.384;2023-02-15T01:14:58;31.75;;;14.85;;
56051;SDS011;41919;42.648;23.384;2023-02-15T01:17:24;32.38;;;15.25;;
56051;SDS011;41919;42.648;23.384;2023-02-15T01:19:50;29.95;;;14.32;;
56051;SDS011;41919;42.648;23.384;2023-02-15T01:22:16;36.53;;;16.60;;
56051;SDS011;41919;42.648;23.384;2023-02-15T01:24:43;35.25;;;15.88;;
56051;SDS011;41919;42.648;23.384;2023-02-15T01:27:09;35.03;;;14.98;;
56051;SDS011;41919;42.648;23.384;2023-02-15T01:29:34;31.65;;;15.35;;
56051;SDS011;41919;42.648;23.384;2023-02-15T01:32:00;34.08;;;14.65;;
56051;SDS011;41919;42.648;23.384;2023-02-15T01:34:25;32.53;;;14.57;;
56051;SDS011;41919;42.648;23.384;2023-02-15T01:36:51;33.90;;;15.02;;
56051;SDS011;41919;42.648;23.384;2023-02-15T01:39:16;33.80;;;14.32;;
56051;SDS011;41919;42.648;23.384;2023-02-15T01:41:41;31.98;;;14.35;;
56051;SDS011;41919;42.648;23.384;2023-02-15T01:47:10;33.63;;;14.23;;
56051;SDS011;41919;42.648;23.384;2023-02-15T01:49:38;40.28;;;16.13;;
56051;SDS011;41919;42.648;23.384;2023-02-15T01:52:07;36.60;;;16.20;;
56051;SDS011;41919;42.648;23.384;2023-02-15T01:54:34;33.30;;;15.60;;
56051;SDS011;41919;42.648;23.384;2023-02-15T01:57:04;36.40;;;15.25;;
56051;SDS011;41919;42.648;23.384;2023-02-15T01:59:34;31.00;;;14.57;;
56051;SDS011;41919;42.648;23.384;2023-02-15T02:02:01;32.33;;;14.93;;
56051;SDS011;41919;42.648;23.384;2023-02-15T02:04:48;27.98;;;13.18;;
56051;SDS011;41919;42.648;23.384;2023-02-15T02:07:16;35.35;;;14.40;;
56051;SDS011;41919;42.648;23.384;2023-02-15T02:09:45;31.85;;;13.82;;
56051;SDS011;41919;42.648;23.384;2023-02-15T02:12:11;32.67;;;15.23;;
56051;SDS011;41919;42.648;23.384;2023-02-15T02:14:37;33.33;;;14.30;;
56051;SDS011;41919;42.648;23.384;2023-02-15T02:31:22;34.55;;;13.82;;
56051;SDS011;41919;42.648;23.384;2023-02-15T02:34:38;31.42;;;14.07;;
56051;SDS011;41919;42.648;23.384;2023-02-15T02:40:00;34.05;;;14.18;;
56051;SDS011;41919;42.648;23.384;2023-02-15T02:42:35;30.63;;;14.52;;
56051;SDS011;41919;42.648;23.384;2023-02-15T02:45:09;33.30;;;14.90;;
56051;SDS011;41919;42.648;23.384;2023-02-15T02:47:48;29.60;;;13.93;;
56051;SDS011;41919;42.648;23.384;2023-02-15T02:50:17;27.75;;;14.05;;
56051;SDS011;41919;42.648;23.384;2023-02-15T02:52:48;30.50;;;13.95;;
56051;SDS011;41919;42.648;23.384;2023-02-15T02:55:17;33.40;;;15.27;;
56051;SDS011;41919;42.648;23.384;2023-02-15T02:57:54;27.45;;;13.35;;
56051;SDS011;41919;42.648;23.384;2023-02-15T03:00:25;32.90;;;14.15;;
56051;SDS011;41919;42.648;23.384;2023-02-15T03:02:58;33.33;;;14.13;;
56051;SDS011;41919;42.648;23.384;2023-02-15T03:05:30;31.17;;;14.05;;
56051;SDS011;41919;42.648;23.384;2023-02-15T03:07:58;28.73;;;13.05;;
56051;SDS011;41919;42.648;23.384;2023-02-15T03:10:31;32.10;;;14.32;;
56051;SDS011;41919;42.648;23.384;2023-02-15T03:12:58;29.25;;;13.02;;
56051;SDS011;41919;42.648;23.384;2023-02-15T03:15:25;33.78;;;14.38;;
56051;SDS011;41919;42.648;23.384;2023-02-15T03:18:14;31.65;;;15.27;;
56051;SDS011;41919;42.648;23.384;2023-02-15T03:20:43;28.23;;;13.25;;
56051;SDS011;41919;42.648;23.384;2023-02-15T03:23:11;26.75;;;13.02;;
56051;SDS011;41919;42.648;23.384;2023-02-15T03:25:42;30.05;;;13.50;;
56051;SDS011;41919;42.648;23.384;2023-02-15T03:28:13;28.42;;;13.77;;
56051;SDS011;41919;42.648;23.384;2023-02-15T03:30:44;27.60;;;12.68;;
56051;SDS011;41919;42.648;23.384;2023-02-15T03:33:13;29.23;;;13.88;;
56051;SDS011;41919;42.648;23.384;2023-02-15T03:35:44;28.63;;;13.50;;
56051;SDS011;41919;42.648;23.384;2023-02-15T03:38:46;26.58;;;13.98;;
56051;SDS011;41919;42.648;23.384;2023-02-15T03:41:19;29.30;;;13.55;;
56051;SDS011;41919;42.648;23.384;2023-02-15T03:46:47;28.60;;;13.65;;
56051;SDS011;41919;42.648;23.384;2023-02-15T03:49:21;28.63;;;13.20;;
56051;SDS011;41919;42.648;23.384;2023-02-15T03:51:52;30.73;;;14.85;;
56051;SDS011;41919;42.648;23.384;2023-02-15T03:54:22;30.05;;;13.32;;
56051;SDS011;41919;42.648;23.384;2023-02-15T03:57:19;28.88;;;12.95;;
56051;SDS011;41919;42.648;23.384;2023-02-15T04:00:14;28.55;;;13.27;;
56051;SDS011;41919;42.648;23.384;2023-02-15T04:03:12;30.05;;;14.00;;
56051;SDS011;41919;42.648;23.384;2023-02-15T04:05:58;29.05;;;13.30;;
56051;SDS011;41919;42.648;23.384;2023-02-15T04:08:26;33.90;;;14.02;;
56051;SDS011;41919;42.648;23.384;2023-02-15T04:11:11;26.50;;;12.52;;
56051;SDS011;41919;42.648;23.384;2023-02-15T04:13:36;32.58;;;13.93;;
56051;SDS011;41919;42.648;23.384;2023-02-15T04:16:02;28.23;;;12.80;;
56051;SDS011;41919;42.648;23.384;2023-02-15T04:18:28;26.90;;;12.93;;
56051;SDS011;41919;42.648;23.384;2023-02-15T04:21:12;28.58;;;12.80;;
56051;SDS011;41919;42.648;23.384;2023-02-15T04:23:56;29.92;;;12.60;;
56051;SDS011;41919;42.648;23.384;2023-02-15T04:26:41;28.38;;;12.50;;
56051;SDS011;41919;42.648;23.384;2023-02-15T04:29:06;29.20;;;12.82;;
56051;SDS011;41919;42.648;23.384;2023-02-15T04:31:31;28.95;;;12.95;;
56051;SDS011;41919;42.648;23.384;2023-02-15T04:33:57;28.13;;;13.18;;
56051;SDS011;41919;42.648;23.384;2023-02-15T04:36:22;28.98;;;13.25;;
56051;SDS011;41919;42.648;23.384;2023-02-15T04:38:48;22.90;;;12.05;;
56051;SDS011;41919;42.648;23.384;2023-02-15T04:41:13;29.52;;;13.30;;
56051;SDS011;41919;42.648;23.384;2023-02-15T04:43:38;29.33;;;13.32;;
56051;SDS011;41919;42.648;23.384;2023-02-15T04:46:04;27.30;;;12.82;;
56051;SDS011;41919;42.648;23.384;2023-02-15T04:48:29;26.98;;;13.25;;
56051;SDS011;41919;42.648;23.384;2023-02-15T04:50:55;28.50;;;13.77;;
56051;SDS011;41919;42.648;23.384;2023-02-15T04:53:21;29.27;;;13.00;;
56051;SDS011;41919;42.648;23.384;2023-02-15T04:55:46;30.88;;;14.20;;
56051;SDS011;41919;42.648;23.384;2023-02-15T04:58:12;28.38;;;13.45;;
56051;SDS011;41919;42.648;23.384;2023-02-15T05:00:37;30.40;;;13.60;;
56051;SDS011;41919;42.648;23.384;2023-02-15T05:03:03;28.92;;;14.45;;
56051;SDS011;41919;42.648;23.384;2023-02-15T05:05:28;28.40;;;13.93;;
56051;SDS011;41919;42.648;23.384;2023-02-15T05:07:54;30.60;;;14.05;;
56051;SDS011;41919;42.648;23.384;2023-02-15T05:10:19;26.45;;;13.05;;
56051;SDS011;41919;42.648;23.384;2023-02-15T05:12:45;29.75;;;13.27;;
56051;SDS011;41919;42.648;23.384;2023-02-15T05:15:10;27.63;;;14.50;;
56051;SDS011;41919;42.648;23.384;2023-02-15T05:17:36;30.15;;;13.07;;
56051;SDS011;41919;42.648;23.384;2023-02-15T05:20:01;31.42;;;13.63;;
56051;SDS011;41919;42.648;23.384;2023-02-15T05:22:28;29.55;;;13.88;;
56051;SDS011;41919;42.648;23.384;2023-02-15T05:24:53;33.25;;;14.70;;
56051;SDS011;41919;42.648;23.384;2023-02-15T05:27:38;30.98;;;14.27;;
56051;SDS011;41919;42.648;23.384;2023-02-15T05:30:21;27.85;;;13.45;;
56051;SDS011;41919;42.648;23.384;2023-02-15T05:32:47;29.65;;;13.25;;
56051;SDS011;41919;42.648;23.384;2023-02-15T05:35:13;28.58;;;13.02;;
56051;SDS011;41919;42.648;23.384;2023-02-15T05:37:40;26.58;;;12.85;;
56051;SDS011;41919;42.648;23.384;2023-02-15T05:40:06;27.67;;;13.70;;
56051;SDS011;41919;42.648;23.384;2023-02-15T05:42:32;27.17;;;13.40;;
56051;SDS011;41919;42.648;23.384;2023-02-15T05:44:57;30.80;;;13.90;;
56051;SDS011;41919;42.648;23.384;2023-02-15T05:47:22;24.60;;;12.30;;
56051;SDS011;41919;42.648;23.384;2023-02-15T05:49:48;32.88;;;14.10;;
56051;SDS011;41919;42.648;23.384;2023-02-15T05:52:13;23.40;;;12.27;;
56051;SDS011;41919;42.648;23.384;2023-02-15T05:54:39;25.88;;;12.82;;
56051;SDS011;41919;42.648;23.384;2023-02-15T05:57:05;27.67;;;13.25;;
56051;SDS011;41919;42.648;23.384;2023-02-15T05:59:31;28.90;;;13.77;;
56051;SDS011;41919;42.648;23.384;2023-02-15T06:01:56;26.67;;;13.15;;
56051;SDS011;41919;42.648;23.384;2023-02-15T06:04:21;26.05;;;12.27;;
56051;SDS011;41919;42.648;23.384;2023-02-15T06:06:47;26.45;;;13.00;;
56051;SDS011;41919;42.648;23.384;2023-02-15T06:09:13;28.15;;;12.60;;
56051;SDS011;41919;42.648;23.384;2023-02-15T06:11:38;29.17;;;12.52;;
56051;SDS011;41919;42.648;23.384;2023-02-15T06:14:04;23.90;;;12.05;;
56051;SDS011;41919;42.648;23.384;2023-02-15T06:16:29;28.95;;;12.85;;
56051;SDS011;41919;42.648;23.384;2023-02-15T06:18:55;26.90;;;12.25;;
56051;SDS011;41919;42.648;23.384;2023-02-15T06:21:21;25.80;;;12.38;;
56051;SDS011;41919;42.648;23.384;2023-02-15T06:23:46;25.90;;;13.13;;
56051;SDS011;41919;42.648;23.384;2023-02-15T06:26:12;24.80;;;12.32;;
56051;SDS011;41919;42.648;23.384;2023-02-15T06:28:37;28.55;;;12.93;;
56051;SDS011;41919;42.648;23.384;2023-02-15T06:31:03;29.52;;;12.98;;
56051;SDS011;41919;42.648;23.384;2023-02-15T06:33:28;23.23;;;11.80;;
56051;SDS011;41919;42.648;23.384;2023-02-15T06:35:55;27.05;;;12.70;;
56051;SDS011;41919;42.648;23.384;2023-02-15T06:38:21;33.78;;;13.70;;
56051;SDS011;41919;42.648;23.384;2023-02-15T06:40:47;24.05;;;12.60;;
56051;SDS011;41919;42.648;23.384;2023-02-15T06:43:12;24.48;;;11.90;;
56051;SDS011;41919;42.648;23.384;2023-02-15T06:45:38;22.63;;;11.27;;
56051;SDS011;41919;42.648;23.384;2023-02-15T06:48:04;24.70;;;12.02;;
56051;SDS011;41919;42.648;23.384;2023-02-15T06:50:31;25.13;;;11.93;;
56051;SDS011;41919;42.648;23.384;2023-02-15T06:52:57;22.92;;;12.35;;
56051;SDS011;41919;42.648;23.384;2023-02-15T06:55:23;25.77;;;12.15;;
56051;SDS011;41919;42.648;23.384;2023-02-15T06:57:49;23.75;;;11.77;;
56051;SDS011;41919;42.648;23.384;2023-02-15T07:00:15;21.58;;;11.52;;
56051;SDS011;41919;42.648;23.384;2023-02-15T07:02:40;20.73;;;11.27;;
56051;SDS011;41919;42.648;23.384;2023-02-15T07:05:06;19.65;;;10.50;;
56051;SDS011;41919;42.648;23.384;2023-02-15T07:07:31;18.42;;;10.70;;
56051;SDS011;41919;42.648;23.384;2023-02-15T07:09:57;20.20;;;10.85;;
56051;SDS011;41919;42.648;23.384;2023-02-15T07:12:22;19.67;;;11.07;;
56051;SDS011;41919;42.648;23.384;2023-02-15T07:15:06;18.30;;;10.27;;
56051;SDS011;41919;42.648;23.384;2023-02-15T07:17:34;15.73;;;9.63;;
56051;SDS011;41919;42.648;23.384;2023-02-15T07:20:00;19.75;;;11.27;;
56051;SDS011;41919;42.648;23.384;2023-02-15T07:22:26;16.38;;;10.82;;
56051;SDS011;41919;42.648;23.384;2023-02-15T07:24:52;19.48;;;10.68;;
56051;SDS011;41919;42.648;23.384;2023-02-15T07:27:19;18.15;;;11.07;;
56051;SDS011;41919;42.648;23.384;2023-02-15T07:29:46;19.45;;;11.77;;
56051;SDS011;41919;42.648;23.384;2023-02-15T07:32:11;15.60;;;10.52;;
56051;SDS011;41919;42.648;23.384;2023-02-15T07:34:36;17.33;;;11.23;;
56051;SDS011;41919;42.648;23.384;2023-02-15T07:37:02;17.50;;;10.50;;
56051;SDS011;41919;42.648;23.384;2023-02-15T07:39:27;15.60;;;10.60;;
56051;SDS011;41919;42.648;23.384;2023-02-15T07:41:53;18.13;;;11.45;;
56051;SDS011;41919;42.648;23.384;2023-02-15T07:44:18;17.23;;;10.55;;
56051;SDS011;41919;42.648;23.384;2023-02-15T07:46:44;17.38;;;10.63;;
56051;SDS011;41919;42.648;23.384;2023-02-15T07:49:09;18.42;;;12.13;;
56051;SDS011;41919;42.648;23.384;2023-02-15T07:51:34;16.42;;;11.10;;
56051;SDS011;41919;42.648;23.384;2023-02-15T07:54:00;16.85;;;10.02;;
56051;SDS011;41919;42.648;23.384;2023-02-15T07:56:25;16.23;;;10.45;;
56051;SDS011;41919;42.648;23.384;2023-02-15T07:58:51;17.65;;;10.85;;
56051;SDS011;41919;42.648;23.384;2023-02-15T08:01:17;14.80;;;10.52;;
56051;SDS011;41919;42.648;23.384;2023-02-15T08:03:55;14.30;;;9.88;;
56051;SDS011;41919;42.648;23.384;2023-02-15T08:06:22;16.42;;;10.63;;
56051;SDS011;41919;42.648;23.384;2023-02-15T08:08:49;18.25;;;10.27;;
56051;SDS011;41919;42.648;23.384;2023-02-15T08:16:38;16.15;;;10.10;;
56051;SDS011;41919;42.648;23.384;2023-02-15T08:19:27;17.20;;;10.48;;
56051;SDS011;41919;42.648;23.384;2023-02-15T08:21:55;26.67;;;13.85;;
56051;SDS011;41919;42.648;23.384;2023-02-15T08:24:23;15.35;;;10.20;;
56051;SDS011;41919;42.648;23.384;2023-02-15T08:26:51;18.13;;;10.43;;
56051;SDS011;41919;42.648;23.384;2023-02-15T08:29:18;15.90;;;10.55;;
56051;SDS011;41919;42.648;23.384;2023-02-15T08:31:47;18.58;;;10.73;;
56051;SDS011;41919;42.648;23.384;2023-02-15T08:34:16;17.42;;;10.98;;
56051;SDS011;41919;42.648;23.384;2023-02-15T08:36:43;17.55;;;10.98;;
56051;SDS011;41919;42.648;23.384;2023-02-15T08:39:12;18.55;;;10.38;;
56051;SDS011;41919;42.648;23.384;2023-02-15T08:41:39;15.48;;;10.05;;
56051;SDS011;41919;42.648;23.384;2023-02-15T08:44:07;18.25;;;10.38;;
56051;SDS011;41919;42.648;23.384;2023-02-15T08:46:34;16.02;;;10.25;;
56051;SDS011;41919;42.648;23.384;2023-02-15T08:49:01;16.23;;;9.52;;
56051;SDS011;41919;42.648;23.384;2023-02-15T08:51:29;14.93;;;10.80;;
56051;SDS011;41919;42.648;23.384;2023-02-15T08:53:57;15.02;;;10.40;;
56051;SDS011;41919;42.648;23.384;2023-02-15T08:56:25;14.60;;;11.40;;
56051;SDS011;41919;42.648;23.384;2023-02-15T08:58:53;15.65;;;10.75;;
56051;SDS011;41919;42.648;23.384;2023-02-15T09:01:20;18.23;;;11.35;;
56051;SDS011;41919;42.648;23.384;2023-02-15T09:03:47;22.45;;;10.48;;
56051;SDS011;41919;42.648;23.384;2023-02-15T09:06:15;15.52;;;10.35;;
56051;SDS011;41919;42.648;23.384;2023-02-15T09:08:41;15.55;;;10.43;;
56051;SDS011;41919;42.648;23.384;2023-02-15T09:11:08;19.52;;;10.63;;
56051;SDS011;41919;42.648;23.384;2023-02-15T09:13:41;16.05;;;9.85;;
56051;SDS011;41919;42.648;23.384;2023-02-15T09:16:08;16.00;;;9.75;;
56051;SDS011;41919;42.648;23.384;2023-02-15T09:18:37;16.38;;;10.00;;
56051;SDS011;41919;42.648;23.384;2023-02-15T09:23:33;15.57;;;9.70;;
56051;SDS011;41919;42.648;23.384;2023-02-15T09:26:05;15.15;;;9.35;;
56051;SDS011;41919;42.648;23.384;2023-02-15T09:28:33;16.27;;;9.07;;
56051;SDS011;41919;42.648;23.384;2023-02-15T09:31:12;17.90;;;9.13;;
56051;SDS011;41919;42.648;23.384;2023-02-15T09:33:43;18.98;;;10.43;;
56051;SDS011;41919;42.648;23.384;2023-02-15T09:36:17;18.58;;;10.05;;
56051;SDS011;41919;42.648;23.384;2023-02-15T09:38:47;18.48;;;10.05;;
56051;SDS011;41919;42.648;23.384;2023-02-15T09:46:39;18.67;;;9.88;;
56051;SDS011;41919;42.648;23.384;2023-02-15T09:57:15;17.30;;;10.23;;
56051;SDS011;41919;42.648;23.384;2023-02-15T10:02:32;16.17;;;9.55;;
56051;SDS011;41919;42.648;23.384;2023-02-15T10:10:39;16.00;;;10.05;;
56051;SDS011;41919;42.648;23.384;2023-02-15T10:21:28;15.27;;;10.10;;
56051;SDS011;41919;42.648;23.384;2023-02-15T10:26:50;18.48;;;11.27;;
56051;SDS011;41919;42.648;23.384;2023-02-15T10:31:55;16.02;;;9.60;;
56051;SDS011;41919;42.648;23.384;2023-02-15T10:37:12;19.15;;;10.52;;
56051;SDS011;41919;42.648;23.384;2023-02-15T10:40:12;17.85;;;10.60;;
56051;SDS011;41919;42.648;23.384;2023-02-15T10:43:05;18.10;;;9.68;;
56051;SDS011;41919;42.648;23.384;2023-02-15T10:51:08;20.00;;;11.90;;
56051;SDS011;41919;42.648;23.384;2023-02-15T10:53:46;18.67;;;10.43;;
56051;SDS011;41919;42.648;23.384;2023-02-15T10:56:45;18.90;;;10.15;;
56051;SDS011;41919;42.648;23.384;2023-02-15T11:01:59;19.00;;;11.40;;
56051;SDS011;41919;42.648;23.384;2023-02-15T11:07:08;18.77;;;10.90;;
56051;SDS011;41919;42.648;23.384;2023-02-15T11:12:14;19.52;;;10.48;;
56051;SDS011;41919;42.648;23.384;2023-02-15T11:14:55;18.58;;;10.40;;
56051;SDS011;41919;42.648;23.384;2023-02-15T11:17:27;20.52;;;11.38;;
56051;SDS011;41919;42.648;23.384;2023-02-15T11:23:08;19.42;;;10.82;;
56051;SDS011;41919;42.648;23.384;2023-02-15T11:25:44;22.27;;;12.40;;
56051;SDS011;41919;42.648;23.384;2023-02-15T11:28:21;21.25;;;12.27;;
56051;SDS011;41919;42.648;23.384;2023-02-15T11:33:20;22.33;;;11.48;;
56051;SDS011;41919;42.648;23.384;2023-02-15T11:35:53;20.60;;;12.15;;
56051;SDS011;41919;42.648;23.384;2023-02-15T11:38:31;20.27;;;12.02;;
56051;SDS011;41919;42.648;23.384;2023-02-15T11:41:00;21.40;;;10.68;;
56051;SDS011;41919;42.648;23.384;2023-02-15T11:46:05;22.55;;;11.77;;
56051;SDS011;41919;42.648;23.384;2023-02-15T11:48:32;23.85;;;12.50;;
56051;SDS011;41919;42.648;23.384;2023-02-15T11:50:58;22.02;;;11.45;;
56051;SDS011;41919;42.648;23.384;2023-02-15T11:53:25;21.75;;;11.30;;
56051;SDS011;41919;42.648;23.384;2023-02-15T11:55:56;20.95;;;12.38;;
56051;SDS011;41919;42.648;23.384;2023-02-15T11:58:30;23.85;;;12.63;;
56051;SDS011;41919;42.648;23.384;2023-02-15T12:01:13;25.55;;;12.85;;
56051;SDS011;41919;42.648;23.384;2023-02-15T12:03:47;24.40;;;11.80;;
56051;SDS011;41919;42.648;23.384;2023-02-15T12:06:23;27.73;;;12.50;;
56051;SDS011;41919;42.648;23.384;2023-02-15T12:08:55;22.90;;;11.20;;
56051;SDS011;41919;42.648;23.384;2023-02-15T12:11:39;20.35;;;11.70;;
56051;SDS011;41919;42.648;23.384;2023-02-15T12:14:06;22.13;;;11.90;;
56051;SDS011;41919;42.648;23.384;2023-02-15T12:16:46;20.92;;;12.38;;
56051;SDS011;41919;42.648;23.384;2023-02-15T12:21:43;22.10;;;11.52;;
56051;SDS011;41919;42.648;23.384;2023-02-15T12:24:20;24.52;;;11.80;;
56051;SDS011;41919;42.648;23.384;2023-02-15T12:26:58;23.83;;;13.57;;
56051;SDS011;41919;42.648;23.384;2023-02-15T12:29:30;25.88;;;12.23;;
56051;SDS011;41919;42.648;23.384;2023-02-15T12:32:04;21.67;;;12.05;;
56051;SDS011;41919;42.648;23.384;2023-02-15T12:34:37;21.80;;;12.30;;
56051;SDS011;41919;42.648;23.384;2023-02-15T12:37:26;33.50;;;15.93;;
56051;SDS011;41919;42.648;23.384;2023-02-15T12:39:55;22.67;;;13.10;;
56051;SDS011;41919;42.648;23.384;2023-02-15T12:42:23;23.73;;;12.32;;
56051;SDS011;41919;42.648;23.384;2023-02-15T12:45:32;22.27;;;12.00;;
56051;SDS011;41919;42.648;23.384;2023-02-15T12:48:28;23.27;;;11.80;;
56051;SDS011;41919;42.648;23.384;2023-02-15T12:50:47;24.67;;;12.70;;
56051;SDS011;41919;42.648;23.384;2023-02-15T12:53:18;22.70;;;12.35;;
56051;SDS011;41919;42.648;23.384;2023-02-15T12:58:30;24.95;;;12.70;;
56051;SDS011;41919;42.648;23.384;2023-02-15T13:03:34;25.30;;;11.60;;
56051;SDS011;41919;42.648;23.384;2023-02-15T13:06:00;23.00;;;12.05;;
56051;SDS011;41919;42.648;23.384;2023-02-15T13:08:31;24.98;;;12.55;;
56051;SDS011;41919;42.648;23.384;2023-02-15T13:11:06;24.27;;;12.73;;
56051;SDS011;41919;42.648;23.384;2023-02-15T13:13:36;22.77;;;12.73;;
56051;SDS011;41919;42.648;23.384;2023-02-15T13:16:15;22.17;;;12.00;;
56051;SDS011;41919;42.648;23.384;2023-02-15T13:18:45;26.45;;;12.85;;
56051;SDS011;41919;42.648;23.384;2023-02-15T13:21:16;26.77;;;13.05;;
56051;SDS011;41919;42.648;23.384;2023-02-15T13:23:49;24.20;;;12.40;;
56051;SDS011;41919;42.648;23.384;2023-02-15T13:26:22;26.45;;;11.98;;
56051;SDS011;41919;42.648;23.384;2023-02-15T13:28:54;23.33;;;11.85;;
56051;SDS011;41919;42.648;23.384;2023-02-15T13:31:23;24.48;;;12.13;;
56051;SDS011;41919;42.648;23.384;2023-02-15T13:34:00;24.00;;;12.18;;
56051;SDS011;41919;42.648;23.384;2023-02-15T13:36:33;25.58;;;12.43;;
56051;SDS011;41919;42.648;23.384;2023-02-15T13:59:38;22.77;;;12.40;;
56051;SDS011;41919;42.648;23.384;2023-02-15T14:05:14;25.60;;;12.20;;
56051;SDS011;41919;42.648;23.384;2023-02-15T14:16:36;24.38;;;12.07;;
56051;SDS011;41919;42.648;23.384;2023-02-15T14:22:29;25.55;;;12.30;;
56051;SDS011;41919;42.648;23.384;2023-02-15T14:25:14;26.25;;;13.30;;
56051;SDS011;41919;42.648;23.384;2023-02-15T14:30:30;26.08;;;12.52;;
56051;SDS011;41919;42.648;23.384;2023-02-15T14:33:28;22.92;;;12.70;;
56051;SDS011;41919;42.648;23.384;2023-02-15T14:36:02;23.90;;;13.13;;
56051;SDS011;41919;42.648;23.384;2023-02-15T14:44:14;24.35;;;12.88;;
56051;SDS011;41919;42.648;23.384;2023-02-15T14:47:07;22.83;;;12.07;;
56051;SDS011;41919;42.648;23.384;2023-02-15T14:49:38;27.02;;;13.07;;
56051;SDS011;41919;42.648;23.384;2023-02-15T14:52:13;35.92;;;16.48;;
56051;SDS011;41919;42.648;23.384;2023-02-15T15:05:07;27.13;;;13.35;;
56051;SDS011;41919;42.648;23.384;2023-02-15T15:07:49;33.33;;;14.10;;
56051;SDS011;41919;42.648;23.384;2023-02-15T15:12:46;28.45;;;14.45;;
56051;SDS011;41919;42.648;23.384;2023-02-15T15:18:00;27.85;;;12.88;;
56051;SDS011;41919;42.648;23.384;2023-02-15T15:25:45;26.25;;;13.57;;
56051;SDS011;41919;42.648;23.384;2023-02-15T15:31:20;27.90;;;14.80;;
56051;SDS011;41919;42.648;23.384;2023-02-15T15:34:04;26.98;;;13.38;;
56051;SDS011;41919;42.648;23.384;2023-02-15T15:50:40;28.27;;;13.82;;
56051;SDS011;41919;42.648;23.384;2023-02-15T15:53:06;30.85;;;14.80;;
56051;SDS011;41919;42.648;23.384;2023-02-15T15:55:45;27.60;;;13.77;;
56051;SDS011;41919;42.648;23.384;2023-02-15T15:58:14;28.73;;;12.45;;
56051;SDS011;41919;42.648;23.384;2023-02-15T16:00:45;31.08;;;13.88;;
56051;SDS011;41919;42.648;23.384;2023-02-15T16:03:21;26.90;;;13.55;;
56051;SDS011;41919;42.648;23.384;2023-02-15T16:05:48;32.10;;;14.27;;
56051;SDS011;41919;42.648;23.384;2023-02-15T16:08:40;29.80;;;14.45;;
56051;SDS011;41919;42.648;23.384;2023-02-15T16:11:10;31.55;;;13.82;;
56051;SDS011;41919;42.648;23.384;2023-02-15T16:16:05;28.25;;;13.05;;
56051;SDS011;41919;42.648;23.384;2023-02-15T16:18:32;29.10;;;13.63;;
56051;SDS011;41919;42.648;23.384;2023-02-15T16:21:01;33.97;;;14.05;;
56051;SDS011;41919;42.648;23.384;2023-02-15T16:28:26;26.33;;;13.25;;
56051;SDS011;41919;42.648;23.384;2023-02-15T16:31:07;27.70;;;14.13;;
56051;SDS011;41919;42.648;23.384;2023-02-15T16:33:38;31.08;;;14.48;;
56051;SDS011;41919;42.648;23.384;2023-02-15T16:36:05;31.52;;;14.73;;
56051;SDS011;41919;42.648;23.384;2023-02-15T16:43:32;38.50;;;14.43;;
56051;SDS011;41919;42.648;23.384;2023-02-15T16:46:03;35.00;;;15.27;;
56051;SDS011;41919;42.648;23.384;2023-02-15T16:48:30;30.35;;;14.88;;
56051;SDS011;41919;42.648;23.384;2023-02-15T16:50:57;36.17;;;15.13;;
56051;SDS011;41919;42.648;23.384;2023-02-15T16:53:25;34.83;;;15.50;;
56051;SDS011;41919;42.648;23.384;2023-02-15T16:55:55;33.05;;;15.63;;
56051;SDS011;41919;42.648;23.384;2023-02-15T16:58:25;35.28;;;16.20;;
56051;SDS011;41919;42.648;23.384;2023-02-15T17:01:00;35.72;;;15.40;;
56051;SDS011;41919;42.648;23.384;2023-02-15T17:03:27;33.65;;;16.48;;
56051;SDS011;41919;42.648;23.384;2023-02-15T17:05:55;32.17;;;16.40;;
56051;SDS011;41919;42.648;23.384;2023-02-15T17:08:28;40.60;;;16.55;;
56051;SDS011;41919;42.648;23.384;2023-02-15T17:13:23;37.53;;;16.63;;
56051;SDS011;41919;42.648;23.384;2023-02-15T17:18:24;37.17;;;15.63;;
56051;SDS011;41919;42.648;23.384;2023-02-15T17:21:12;36.72;;;17.35;;
56051;SDS011;41919;42.648;23.384;2023-02-15T17:23:50;49.53;;;18.33;;
56051;SDS011;41919;42.648;23.384;2023-02-15T17:26:26;41.15;;;17.20;;
56051;SDS011;41919;42.648;23.384;2023-02-15T17:28:55;41.67;;;18.80;;
56051;SDS011;41919;42.648;23.384;2023-02-15T17:31:24;41.40;;;18.08;;
56051;SDS011;41919;42.648;23.384;2023-02-15T17:33:53;36.38;;;16.48;;
56051;SDS011;41919;42.648;23.384;2023-02-15T17:36:21;52.28;;;22.33;;
56051;SDS011;41919;42.648;23.384;2023-02-15T17:41:27;32.17;;;15.88;;
56051;SDS011;41919;42.648;23.384;2023-02-15T17:43:56;38.17;;;16.50;;
56051;SDS011;41919;42.648;23.384;2023-02-15T17:46:22;35.95;;;16.38;;
56051;SDS011;41919;42.648;23.384;2023-02-15T17:48:52;34.88;;;16.45;;